Galliano, Louisiana
Current Conditions -  °F | °C
As of 1:47 PM on Friday 24 Oct 2014 (Local Time) from KHUM Reporting Station
Clear Clear  
Wind Chill: 75°   Ceiling: Unl
Heat Index: 75°   Visibility: 7mi
Dew Point: 48°   Wind: 8mph
Humidity: 38%   Direction: 360°N
Pressure: 30.06"   Gusts: NA
Location:  29.44°N, 90.3°W
Report Text: KHUM 241847Z 36007KT 7SM SKC 24/09 A3006 RMK ATIS ECHO VA RY36 MS
Loading
Personal Weather Stations






























Interactive Weather Map
Tropical Storm Tracking
New forecast layout! Learn more

10-Day Weather Forecast

Advertisements
Track Severe Weather on mobile